Time;durP1;ratioP1;P1;durP2;ratioP2;P2;SDS_P1;SDS_P2;PMS_P1;PMS_P2;Temp;Humidity;BMP_temperature;BMP_pressure;BME280_temperature;BME280_humidity;BME280_pressure;Samples;Min_cycle;Max_cycle;Signal;HPM_P1;HPM_P2
2020/12/03 00:00:50;;;;;;;18.50;12.55;;;18.90;46.00;;;;;;5067024;28;20670;-63
2020/12/03 00:03:28;;;;;;;19.92;13.05;;;18.90;45.80;;;;;;5066402;28;20054;-63
2020/12/03 00:06:07;;;;;;;17.40;12.55;;;19.00;46.00;;;;;;5054053;23;20041;-59
2020/12/03 00:08:35;;;;;;;18.67;12.10;;;19.00;45.80;;;;;;5047192;28;20170;-61
2020/12/03 00:11:00;;;;;;;15.48;11.82;;;19.00;45.80;;;;;;5032522;28;20036;-59
2020/12/03 00:13:27;;;;;;;18.92;12.27;;;19.00;45.70;;;;;;5047874;28;20033;-57
2020/12/03 00:15:56;;;;;;;16.63;12.57;;;19.00;45.70;;;;;;5030096;28;20696;-59
2020/12/03 00:18:22;;;;;;;16.00;11.98;;;19.00;45.70;;;;;;5046045;28;20423;-59
2020/12/03 00:20:47;;;;;;;16.17;11.65;;;19.10;45.70;;;;;;5047167;28;20626;-58
2020/12/03 00:23:13;;;;;;;17.17;12.38;;;19.10;45.70;;;;;;5064151;28;20025;-58
2020/12/03 00:25:38;;;;;;;15.70;11.77;;;19.10;45.70;;;;;;5067138;28;20029;-59
2020/12/03 00:28:04;;;;;;;16.83;11.98;;;19.10;45.60;;;;;;5067619;28;20043;-61
2020/12/03 00:30:29;;;;;;;16.67;12.02;;;19.10;45.50;;;;;;5067165;28;20700;-57
2020/12/03 00:32:55;;;;;;;16.02;11.82;;;19.10;45.60;;;;;;5067627;28;20040;-58
2020/12/03 00:35:21;;;;;;;17.38;12.55;;;19.10;45.50;;;;;;5067062;28;20039;-59
2020/12/03 00:37:47;;;;;;;17.98;13.07;;;19.10;45.50;;;;;;5065603;28;20036;-58
2020/12/03 00:40:12;;;;;;;14.63;10.68;;;19.10;45.50;;;;;;5066305;28;20416;-59
2020/12/03 00:42:38;;;;;;;15.25;11.77;;;19.10;45.50;;;;;;5066542;28;20033;-57
2020/12/03 00:45:05;;;;;;;16.67;11.30;;;19.10;45.40;;;;;;5066956;28;20510;-58
2020/12/03 00:47:31;;;;;;;15.88;11.60;;;19.10;45.40;;;;;;5066397;28;20109;-62
2020/12/03 00:49:56;;;;;;;14.50;11.20;;;19.10;45.40;;;;;;5066874;28;20056;-59
2020/12/03 00:52:22;;;;;;;14.35;11.23;;;19.10;45.40;;;;;;5067284;28;20394;-61
2020/12/03 00:54:47;;;;;;;16.75;11.60;;;19.10;45.40;;;;;;5065347;28;20036;-59
2020/12/03 00:57:13;;;;;;;15.25;11.88;;;19.10;45.40;;;;;;5066771;28;20031;-59
2020/12/03 00:59:39;;;;;;;17.15;11.52;;;19.10;45.40;;;;;;5066582;28;20021;-59
2020/12/03 01:02:13;;;;;;;14.55;12.05;;;19.10;45.30;;;;;;5066620;28;20447;-57
2020/12/03 01:04:39;;;;;;;13.88;11.32;;;19.10;45.30;;;;;;5065653;28;20032;-57
2020/12/03 01:07:05;;;;;;;14.60;11.52;;;19.10;45.30;;;;;;5047930;28;20039;-60
2020/12/03 01:09:31;;;;;;;14.60;11.13;;;19.10;45.40;;;;;;5066628;28;20028;-61
2020/12/03 01:11:57;;;;;;;14.88;11.15;;;19.10;45.20;;;;;;5066650;28;20913;-59
2020/12/03 01:14:22;;;;;;;14.00;10.98;;;19.10;45.20;;;;;;5065181;28;20032;-61
2020/12/03 01:16:48;;;;;;;13.80;11.63;;;19.10;45.20;;;;;;5066257;28;20020;-60
2020/12/03 01:19:13;;;;;;;15.20;12.05;;;19.00;45.20;;;;;;5049088;28;20028;-61
2020/12/03 01:21:39;;;;;;;13.95;11.48;;;19.10;45.20;;;;;;5065689;28;20024;-57
2020/12/03 01:24:04;;;;;;;13.45;11.25;;;19.10;45.30;;;;;;5066070;28;20037;-60
2020/12/03 01:26:30;;;;;;;12.52;11.00;;;19.00;45.20;;;;;;5066005;28;20483;-61
2020/12/03 01:28:55;;;;;;;13.38;11.30;;;19.00;45.20;;;;;;5066456;28;20044;-59
2020/12/03 01:31:21;;;;;;;13.90;11.68;;;19.00;45.20;;;;;;5047986;28;20070;-61
2020/12/03 01:33:46;;;;;;;13.32;11.02;;;19.00;45.20;;;;;;5048106;28;20668;-59
2020/12/03 01:36:12;;;;;;;15.13;11.02;;;19.00;45.10;;;;;;5065627;28;20027;-60
2020/12/03 01:38:38;;;;;;;12.65;10.02;;;19.00;45.20;;;;;;5066003;28;20021;-60
2020/12/03 01:41:03;;;;;;;12.90;11.15;;;18.90;45.20;;;;;;5066153;28;20017;-59
2020/12/03 01:43:29;;;;;;;11.77;10.55;;;18.90;45.40;;;;;;5065977;28;20036;-60
2020/12/03 01:45:59;;;;;;;12.82;10.60;;;18.90;45.40;;;;;;5065673;28;20063;-60
2020/12/03 01:48:30;;;;;;;11.70;10.18;;;18.90;45.50;;;;;;5047450;28;20032;-59
2020/12/03 01:50:55;;;;;;;12.63;11.15;;;18.90;45.50;;;;;;5064968;28;20071;-58
2020/12/03 01:53:21;;;;;;;13.23;10.75;;;18.90;45.60;;;;;;5047840;28;20505;-58
2020/12/03 01:55:47;;;;;;;13.30;10.55;;;18.90;45.60;;;;;;5066083;28;20498;-58
2020/12/03 01:58:29;;;;;;;12.70;11.13;;;18.90;45.40;;;;;;5048886;28;20043;-59
2020/12/03 02:00:54;;;;;;;14.43;10.38;;;18.90;45.40;;;;;;5063183;28;21038;-61
2020/12/03 02:03:20;;;;;;;12.25;10.40;;;18.90;45.40;;;;;;5064525;28;20032;-62
2020/12/03 02:05:45;;;;;;;11.80;10.55;;;18.90;45.50;;;;;;5065443;28;20083;-60
2020/12/03 02:08:11;;;;;;;11.95;10.73;;;18.90;45.70;;;;;;5065442;28;20078;-59
2020/12/03 02:10:36;;;;;;;13.48;10.50;;;18.90;45.40;;;;;;5065316;28;20037;-60
2020/12/03 02:13:02;;;;;;;12.73;10.65;;;18.90;45.40;;;;;;5064989;28;20502;-59
2020/12/03 02:15:27;;;;;;;12.20;10.88;;;18.90;45.60;;;;;;5065788;28;20025;-61
2020/12/03 02:17:53;;;;;;;13.77;10.85;;;19.00;45.50;;;;;;5065075;28;20028;-62
2020/12/03 02:20:19;;;;;;;11.55;10.20;;;18.90;45.40;;;;;;5064972;28;20025;-62
2020/12/03 02:22:44;;;;;;;12.90;10.93;;;18.90;45.30;;;;;;5064892;28;20028;-61
2020/12/03 02:25:10;;;;;;;13.23;10.15;;;19.00;45.30;;;;;;5065662;28;20419;-60
2020/12/03 02:27:36;;;;;;;13.38;11.68;;;19.00;45.30;;;;;;5064869;28;20032;-60
2020/12/03 02:30:03;;;;;;;13.55;10.57;;;19.00;45.30;;;;;;5064046;28;20033;-61
2020/12/03 02:32:29;;;;;;;12.35;10.48;;;19.00;45.30;;;;;;5064749;28;20032;-61
2020/12/03 02:34:54;;;;;;;11.95;10.65;;;19.00;45.30;;;;;;5065785;28;20025;-61
2020/12/03 02:37:20;;;;;;;11.60;10.32;;;19.00;45.30;;;;;;5066015;28;20028;-62
2020/12/03 02:39:45;;;;;;;11.88;10.30;;;19.00;45.30;;;;;;5065326;28;20024;-61
2020/12/03 02:42:12;;;;;;;11.63;9.82;;;19.10;45.30;;;;;;5064598;28;20029;-60
2020/12/03 02:44:41;;;;;;;11.43;9.80;;;19.00;45.20;;;;;;5063566;28;20494;-59
2020/12/03 02:47:07;;;;;;;12.13;10.82;;;19.00;45.10;;;;;;5063643;28;20494;-61
2020/12/03 02:49:33;;;;;;;11.90;10.60;;;19.10;45.20;;;;;;5063993;28;20273;-57
2020/12/03 02:51:58;;;;;;;11.98;10.25;;;19.10;45.20;;;;;;5064041;28;20521;-57
2020/12/03 02:54:24;;;;;;;11.52;10.23;;;19.10;45.10;;;;;;5063954;28;20032;-58
2020/12/03 02:56:49;;;;;;;14.43;11.10;;;19.10;45.20;;;;;;5064138;28;20395;-58
2020/12/03 02:59:15;;;;;;;11.18;9.98;;;19.10;45.10;;;;;;5064231;28;20032;-60
2020/12/03 03:01:40;;;;;;;11.45;9.48;;;19.10;45.10;;;;;;5064801;28;20109;-61
2020/12/03 03:04:06;;;;;;;11.82;10.45;;;19.10;45.10;;;;;;5063835;28;20033;-58
2020/12/03 03:06:32;;;;;;;13.88;10.88;;;19.10;45.10;;;;;;5063740;28;20044;-61
2020/12/03 03:08:57;;;;;;;12.05;9.63;;;19.10;45.10;;;;;;5045931;28;20028;-58
2020/12/03 03:11:23;;;;;;;15.10;10.43;;;19.10;45.00;;;;;;5063709;28;20035;-58
2020/12/03 03:13:48;;;;;;;11.60;9.65;;;19.10;45.00;;;;;;5064055;28;20032;-60
2020/12/03 03:16:14;;;;;;;12.68;10.48;;;19.10;45.20;;;;;;5064048;28;20036;-57
2020/12/03 03:18:39;;;;;;;13.68;10.77;;;19.10;45.00;;;;;;5063898;28;20108;-58
2020/12/03 03:21:05;;;;;;;11.77;9.90;;;19.10;45.00;;;;;;5063406;28;20017;-59
2020/12/03 03:23:30;;;;;;;13.57;10.48;;;19.10;45.00;;;;;;5063856;28;20020;-59
2020/12/03 03:25:56;;;;;;;12.10;9.80;;;19.10;45.10;;;;;;5063635;28;20173;-59
2020/12/03 03:28:21;;;;;;;11.85;9.95;;;19.10;45.00;;;;;;5045813;28;20037;-57
2020/12/03 03:30:47;;;;;;;10.63;9.50;;;19.10;45.00;;;;;;5062317;28;20039;-59
2020/12/03 03:33:12;;;;;;;11.65;10.45;;;19.10;44.90;;;;;;5064524;28;20036;-58
2020/12/03 03:35:38;;;;;;;11.95;10.35;;;19.10;44.90;;;;;;5063663;28;20082;-57
2020/12/03 03:38:03;;;;;;;11.98;10.43;;;19.10;44.90;;;;;;5063445;28;20138;-60
2020/12/03 03:40:29;;;;;;;13.10;10.90;;;19.10;45.00;;;;;;5063721;28;20032;-59
2020/12/03 03:42:54;;;;;;;11.82;10.07;;;19.10;44.90;;;;;;5063205;28;20055;-59
2020/12/03 03:45:20;;;;;;;11.90;9.75;;;19.10;44.90;;;;;;5057602;28;20032;-59
2020/12/03 03:47:45;;;;;;;11.82;9.73;;;19.00;45.00;;;;;;5064797;28;20112;-59
2020/12/03 03:50:11;;;;;;;12.55;10.55;;;19.00;45.00;;;;;;5063368;28;20087;-59
2020/12/03 03:52:36;;;;;;;11.88;9.93;;;19.10;45.00;;;;;;5063124;28;20499;-57
2020/12/03 03:55:02;;;;;;;10.30;9.05;;;19.00;45.00;;;;;;5064283;28;20491;-60
2020/12/03 03:57:27;;;;;;;11.80;10.02;;;19.00;45.50;;;;;;5063383;28;20035;-56
2020/12/03 03:59:53;;;;;;;11.02;9.57;;;19.00;45.00;;;;;;5063392;28;20029;-59
2020/12/03 04:02:19;;;;;;;11.65;10.48;;;19.00;45.20;;;;;;5063104;28;20494;-59
2020/12/03 04:04:44;;;;;;;13.18;10.30;;;19.00;44.90;;;;;;5063770;28;20025;-59
2020/12/03 04:07:10;;;;;;;12.40;10.35;;;18.90;45.30;;;;;;5063520;28;20081;-59
2020/12/03 04:09:36;;;;;;;13.25;10.18;;;18.90;45.00;;;;;;5045485;28;20112;-61
2020/12/03 04:12:01;;;;;;;15.32;10.73;;;18.90;45.00;;;;;;5062824;28;20443;-59
2020/12/03 04:14:27;;;;;;;12.30;9.70;;;18.90;44.90;;;;;;5063020;28;20624;-59
2020/12/03 04:16:52;;;;;;;11.55;10.35;;;18.90;44.90;;;;;;5045544;28;20047;-57
2020/12/03 04:19:17;;;;;;;11.73;9.98;;;18.90;45.00;;;;;;5063881;28;20021;-58
2020/12/03 04:21:43;;;;;;;11.43;9.50;;;18.90;45.00;;;;;;5062670;28;20025;-60
2020/12/03 04:24:08;;;;;;;11.60;10.40;;;18.80;44.90;;;;;;5063194;28;20043;-59
2020/12/03 04:26:34;;;;;;;11.30;10.10;;;18.80;45.20;;;;;;5063219;28;20078;-59
2020/12/03 04:28:59;;;;;;;12.63;10.80;;;18.80;45.00;;;;;;5062751;28;20025;-58
2020/12/03 04:31:25;;;;;;;11.52;10.13;;;18.80;45.00;;;;;;5062611;28;20490;-58
2020/12/03 04:33:50;;;;;;;13.13;10.48;;;18.80;45.20;;;;;;5063725;28;20024;-58
2020/12/03 04:36:16;;;;;;;11.85;10.23;;;18.80;45.00;;;;;;5063038;28;20078;-56
2020/12/03 04:38:41;;;;;;;11.38;9.80;;;18.80;45.00;;;;;;5063597;28;20039;-60
2020/12/03 04:41:07;;;;;;;13.73;9.90;;;18.80;45.10;;;;;;5063257;28;20021;-59
2020/12/03 04:43:39;;;;;;;12.57;9.93;;;18.80;45.10;;;;;;5048102;28;20047;-57
2020/12/03 04:46:26;;;;;;;13.27;10.25;;;18.80;45.00;;;;;;5048559;28;20513;-57
2020/12/03 04:49:02;;;;;;;14.70;11.27;;;18.80;45.00;;;;;;5048951;28;20498;-60
2020/12/03 04:51:55;;;;;;;12.48;10.00;;;18.80;45.10;;;;;;5049718;28;20103;-59
2020/12/03 04:54:32;;;;;;;11.98;10.23;;;18.80;45.10;;;;;;5066498;28;20066;-58
2020/12/03 04:57:02;;;;;;;12.05;10.40;;;18.80;45.10;;;;;;5066347;28;20092;-57
2020/12/03 04:59:45;;;;;;;11.07;9.70;;;18.80;45.10;;;;;;5066168;28;20031;-57
2020/12/03 05:02:35;;;;;;;12.85;11.02;;;18.80;45.00;;;;;;5050256;28;20036;-60
2020/12/03 05:05:14;;;;;;;12.48;10.30;;;18.80;45.10;;;;;;5065951;28;20616;-60
2020/12/03 05:07:40;;;;;;;12.02;9.82;;;18.70;45.10;;;;;;5048817;28;20036;-57
2020/12/03 05:10:31;;;;;;;9.90;8.82;;;18.70;45.20;;;;;;5048395;28;20028;-61
2020/12/03 05:12:56;;;;;;;11.32;10.10;;;18.70;45.20;;;;;;5050293;28;20036;-59
2020/12/03 05:15:33;;;;;;;11.80;9.55;;;18.70;45.30;;;;;;5048858;28;20035;-57
2020/12/03 05:18:24;;;;;;;12.75;10.43;;;18.70;45.40;;;;;;5065915;28;20510;-57
2020/12/03 05:20:54;;;;;;;11.52;9.50;;;18.70;45.50;;;;;;5048079;28;20655;-61
2020/12/03 05:23:21;;;;;;;11.55;9.90;;;18.60;45.60;;;;;;5065576;28;20264;-59
2020/12/03 05:25:48;;;;;;;11.07;9.02;;;18.60;45.60;;;;;;5047693;28;20033;-58
2020/12/03 05:28:41;;;;;;;11.15;9.48;;;18.60;45.50;;;;;;5065492;28;20119;-60
2020/12/03 05:31:24;;;;;;;12.00;9.77;;;18.50;45.60;;;;;;5050561;28;20028;-58
2020/12/03 05:33:50;;;;;;;13.30;9.88;;;18.60;45.80;;;;;;5060488;28;20063;-59
2020/12/03 05:36:29;;;;;;;13.73;11.27;;;18.50;45.80;;;;;;5065386;28;20036;-58
2020/12/03 05:38:55;;;;;;;12.85;10.20;;;18.50;45.50;;;;;;5064268;28;20441;-60
2020/12/03 05:41:21;;;;;;;14.30;9.50;;;18.50;45.60;;;;;;5065833;28;20029;-57
2020/12/03 05:43:47;;;;;;;11.05;9.68;;;18.50;45.90;;;;;;5064729;28;20059;-59
2020/12/03 05:46:13;;;;;;;12.93;10.82;;;18.40;45.60;;;;;;5065651;28;20396;-55
2020/12/03 05:48:38;;;;;;;13.40;9.77;;;18.40;45.70;;;;;;5060833;28;20047;-56
2020/12/03 05:51:27;;;;;;;12.95;9.35;;;18.40;45.70;;;;;;5065059;28;20055;-54
2020/12/03 05:53:54;;;;;;;14.68;10.68;;;18.40;45.60;;;;;;5065446;28;20103;-55
2020/12/03 05:56:21;;;;;;;11.73;9.18;;;18.40;45.60;;;;;;5047390;28;20033;-59
2020/12/03 05:58:46;;;;;;;18.48;11.02;;;18.30;45.50;;;;;;5065125;28;20043;-56
2020/12/03 06:01:20;;;;;;;15.50;10.80;;;18.30;45.40;;;;;;5064922;28;20025;-57
2020/12/03 06:04:01;;;;;;;16.92;9.93;;;18.30;45.50;;;;;;5064871;28;20545;-57
2020/12/03 06:06:58;;;;;;;13.50;10.52;;;18.30;45.60;;;;;;5046679;28;20542;-55
2020/12/03 06:09:31;;;;;;;12.48;10.00;;;18.30;45.60;;;;;;5032092;28;20024;-55
2020/12/03 06:12:21;;;;;;;13.57;10.15;;;18.20;45.40;;;;;;5029439;28;20103;-59
2020/12/03 06:15:07;;;;;;;16.85;11.70;;;18.20;45.60;;;;;;5030605;28;20737;-56
2020/12/03 06:17:59;;;;;;;20.20;11.57;;;18.30;45.60;;;;;;5048413;28;20437;-55
2020/12/03 06:21:02;;;;;;;18.30;11.77;;;18.30;46.20;;;;;;5046784;28;20021;-59
2020/12/03 06:23:48;;;;;;;19.35;11.23;;;18.40;46.30;;;;;;5064407;28;20044;-60
2020/12/03 06:26:35;;;;;;;15.13;11.25;;;18.40;46.20;;;;;;5037399;22;20053;-47
2020/12/03 06:29:30;;;;;;;16.85;11.65;;;18.40;46.20;;;;;;5034240;28;20049;-47
2020/12/03 06:32:12;;;;;;;19.37;11.43;;;18.50;46.20;;;;;;5029003;28;20037;-47
2020/12/03 06:34:42;;;;;;;14.75;10.73;;;18.50;46.20;;;;;;5043348;28;20403;-47
2020/12/03 06:37:37;;;;;;;16.13;10.88;;;18.60;46.00;;;;;;5028846;28;20115;-47
2020/12/03 06:40:16;;;;;;;15.95;10.35;;;18.70;46.10;;;;;;5046681;28;20024;-49
2020/12/03 06:42:43;;;;;;;14.82;10.25;;;18.70;46.10;;;;;;5027648;28;20028;-46
2020/12/03 06:45:09;;;;;;;24.50;12.30;;;18.80;46.10;;;;;;5044374;28;20608;-47
2020/12/03 06:47:40;;;;;;;19.92;12.82;;;18.80;46.00;;;;;;5062282;28;20115;-49
2020/12/03 06:50:27;;;;;;;20.98;13.23;;;18.90;46.20;;;;;;5062175;28;20035;-48
2020/12/03 06:53:00;;;;;;;21.13;14.25;;;18.90;46.50;;;;;;5062052;28;20046;-50
2020/12/03 06:55:39;;;;;;;18.33;12.40;;;19.00;46.50;;;;;;5062980;28;20032;-49
2020/12/03 06:58:34;;;;;;;19.80;12.63;;;19.10;46.50;;;;;;5046361;28;20028;-47
2020/12/03 07:01:16;;;;;;;22.42;14.05;;;19.10;46.10;;;;;;5047176;28;20028;-48
2020/12/03 07:03:52;;;;;;;19.73;12.60;;;19.20;46.30;;;;;;5042688;28;20101;-47
2020/12/03 07:06:46;;;;;;;18.48;12.48;;;19.30;46.50;;;;;;5028387;28;20036;-49
2020/12/03 07:09:48;;;;;;;16.15;11.68;;;19.40;45.70;;;;;;5027755;28;20033;-49
2020/12/03 07:12:34;;;;;;;17.38;12.50;;;19.40;45.40;;;;;;5042491;28;20041;-47
2020/12/03 07:15:29;;;;;;;17.30;12.90;;;19.40;45.30;;;;;;5043064;28;20761;-47
2020/12/03 07:18:32;;;;;;;21.38;13.23;;;19.50;45.20;;;;;;5042697;28;20033;-47
2020/12/03 07:21:16;;;;;;;21.73;14.38;;;19.50;45.20;;;;;;5042110;28;20029;-48
2020/12/03 07:24:01;;;;;;;16.92;12.82;;;19.40;44.70;;;;;;5062876;28;20029;-47
2020/12/03 07:27:04;;;;;;;16.63;12.23;;;19.40;44.40;;;;;;5044746;28;20032;-49
2020/12/03 07:29:54;;;;;;;15.68;11.80;;;19.40;44.70;;;;;;5028539;28;20025;-51
2020/12/03 07:32:42;;;;;;;16.88;12.32;;;19.40;44.30;;;;;;5042032;28;20039;-47
2020/12/03 07:35:38;;;;;;;19.77;13.75;;;19.40;43.90;;;;;;5040450;28;20025;-50
2020/12/03 07:38:24;;;;;;;20.10;13.48;;;19.30;43.30;;;;;;5049993;28;20554;-47
2020/12/03 07:40:53;;;;;;;15.88;12.85;;;19.20;43.30;;;;;;5055219;28;20486;-47
2020/12/03 07:43:26;;;;;;;19.77;12.07;;;19.20;44.30;;;;;;5041128;28;20033;-48
2020/12/03 07:45:51;;;;;;;15.73;11.45;;;19.20;44.20;;;;;;5025606;28;20029;-50
2020/12/03 07:48:42;;;;;;;17.38;11.65;;;19.20;44.30;;;;;;5043098;28;20044;-53
2020/12/03 07:51:17;;;;;;;16.25;12.35;;;19.10;44.50;;;;;;5041959;28;20033;-50
2020/12/03 07:53:42;;;;;;;15.27;11.38;;;19.10;44.40;;;;;;5042616;28;20033;-47
2020/12/03 07:56:26;;;;;;;17.08;12.80;;;19.10;44.40;;;;;;5042488;28;20029;-47
2020/12/03 07:58:52;;;;;;;17.67;11.52;;;19.00;44.60;;;;;;5042564;28;20031;-48
2020/12/03 08:01:26;;;;;;;14.02;10.70;;;19.00;44.90;;;;;;5008304;28;20029;-49
2020/12/03 08:03:58;;;;;;;15.80;10.43;;;19.00;45.10;;;;;;5042341;28;20452;-47
2020/12/03 08:06:37;;;;;;;11.43;10.10;;;19.00;44.80;;;;;;5008345;28;20289;-47
2020/12/03 08:09:02;;;;;;;15.30;10.82;;;19.00;44.70;;;;;;5045480;28;20040;-47
2020/12/03 08:11:38;;;;;;;15.05;11.18;;;18.90;44.80;;;;;;5061535;28;20032;-48
2020/12/03 08:14:23;;;;;;;13.90;10.77;;;18.90;44.90;;;;;;5061983;28;20033;-52
2020/12/03 08:16:48;;;;;;;14.55;10.73;;;18.90;45.00;;;;;;5048209;28;20382;-47
2020/12/03 08:19:24;;;;;;;14.93;11.32;;;18.80;45.20;;;;;;5066507;28;20529;-47
2020/12/03 08:21:50;;;;;;;13.73;10.10;;;18.80;45.20;;;;;;5066026;28;20063;-46
2020/12/03 08:24:29;;;;;;;16.85;10.27;;;18.80;45.50;;;;;;5066067;28;20060;-50
2020/12/03 08:27:16;;;;;;;16.88;10.80;;;18.80;45.60;;;;;;5065710;28;20040;-49
2020/12/03 08:29:41;;;;;;;17.17;10.73;;;18.80;45.60;;;;;;5066159;28;20116;-47
2020/12/03 08:32:07;;;;;;;16.83;11.25;;;18.80;45.60;;;;;;5048321;28;20580;-47
2020/12/03 08:34:36;;;;;;;17.42;11.20;;;18.70;45.50;;;;;;5066042;28;20264;-48
2020/12/03 08:37:02;;;;;;;13.20;10.55;;;18.80;45.60;;;;;;5065678;28;20021;-53
2020/12/03 08:39:28;;;;;;;16.83;10.77;;;18.70;45.50;;;;;;5031610;28;20037;-47
2020/12/03 08:41:54;;;;;;;14.80;11.45;;;18.70;45.60;;;;;;5047040;28;20094;-48
2020/12/03 08:44:19;;;;;;;15.90;10.88;;;18.80;45.70;;;;;;5031089;28;20025;-47
2020/12/03 08:46:45;;;;;;;14.68;10.27;;;18.80;45.70;;;;;;5066194;28;20032;-47
2020/12/03 08:49:18;;;;;;;15.70;11.45;;;18.80;45.70;;;;;;5031681;28;20501;-49
2020/12/03 08:51:50;;;;;;;16.27;11.65;;;18.80;45.70;;;;;;5048333;28;20025;-48
2020/12/03 08:54:16;;;;;;;19.13;12.43;;;18.80;45.80;;;;;;5065843;28;20056;-49
2020/12/03 08:56:44;;;;;;;17.00;12.68;;;18.80;45.80;;;;;;5065566;28;20285;-50
2020/12/03 08:59:16;;;;;;;18.65;14.60;;;18.90;45.60;;;;;;5047819;28;20345;-49
2020/12/03 09:01:43;;;;;;;18.38;14.15;;;18.80;45.40;;;;;;5046543;28;20463;-52
2020/12/03 09:04:11;;;;;;;18.23;14.48;;;18.80;45.20;;;;;;5042012;28;20058;-51
2020/12/03 09:06:47;;;;;;;18.13;13.57;;;18.90;45.10;;;;;;5085903;28;20105;-50
2020/12/03 09:09:15;;;;;;;17.88;13.60;;;18.90;45.10;;;;;;5067452;28;20402;-52
2020/12/03 09:11:40;;;;;;;20.42;14.07;;;18.90;45.10;;;;;;5049843;28;20030;-48
2020/12/03 09:14:07;;;;;;;19.17;12.80;;;18.90;45.10;;;;;;5067027;28;20222;-51
2020/12/03 09:16:32;;;;;;;17.92;14.15;;;18.90;45.20;;;;;;5084902;28;20488;-49
2020/12/03 09:18:58;;;;;;;18.40;13.13;;;18.90;45.00;;;;;;5067572;28;20016;-49
2020/12/03 09:21:27;;;;;;;16.40;12.90;;;18.90;45.10;;;;;;5084811;28;20517;-49
2020/12/03 09:23:57;;;;;;;16.48;11.77;;;19.00;45.00;;;;;;5067377;28;20036;-49
2020/12/03 09:26:32;;;;;;;17.45;12.02;;;19.00;45.00;;;;;;5066381;28;20047;-49
2020/12/03 09:28:59;;;;;;;18.70;12.37;;;19.00;45.10;;;;;;5083421;28;20063;-49
2020/12/03 09:31:24;;;;;;;22.48;12.32;;;19.00;45.00;;;;;;5066526;28;20401;-49
2020/12/03 09:33:51;;;;;;;28.88;14.52;;;19.00;45.20;;;;;;5067401;28;20021;-51
2020/12/03 09:36:16;;;;;;;32.90;13.60;;;19.10;45.30;;;;;;5066781;28;20112;-50
2020/12/03 09:38:42;;;;;;;28.45;14.23;;;19.10;45.30;;;;;;5084850;28;20457;-48
2020/12/03 09:41:07;;;;;;;21.50;11.50;;;19.10;45.30;;;;;;5066069;28;20076;-49
2020/12/03 09:43:34;;;;;;;27.38;10.90;;;19.10;45.40;;;;;;5050152;28;20055;-49
2020/12/03 09:46:00;;;;;;;25.63;11.82;;;19.10;45.40;;;;;;5050050;28;20059;-49
2020/12/03 09:48:26;;;;;;;22.52;12.23;;;19.10;45.30;;;;;;5049537;28;20062;-49
2020/12/03 09:50:51;;;;;;;23.15;12.02;;;19.10;45.30;;;;;;5066403;28;20052;-49
2020/12/03 09:53:18;;;;;;;26.25;12.10;;;19.10;45.30;;;;;;5084783;28;20428;-51
2020/12/03 09:55:44;;;;;;;22.17;12.23;;;19.10;45.30;;;;;;5085272;28;20517;-49
2020/12/03 09:58:09;;;;;;;25.52;11.85;;;19.10;45.20;;;;;;5049120;28;20151;-51
2020/12/03 10:00:38;;;;;;;23.42;12.27;;;19.10;45.10;;;;;;5084557;28;20426;-54
2020/12/03 10:03:41;;;;;;;19.48;11.77;;;19.10;45.10;;;;;;5066740;28;20048;-53
2020/12/03 10:06:32;;;;;;;23.45;11.73;;;19.10;45.20;;;;;;5084554;28;20028;-51
2020/12/03 10:09:19;;;;;;;25.15;12.25;;;19.10;45.20;;;;;;5084056;28;20035;-51
2020/12/03 10:12:02;;;;;;;20.73;11.65;;;19.10;45.20;;;;;;5065847;28;20112;-52
2020/12/03 10:14:52;;;;;;;21.40;11.38;;;19.00;45.30;;;;;;5084143;28;20416;-49
2020/12/03 10:17:18;;;;;;;20.70;11.93;;;19.00;45.30;;;;;;5084784;28;20501;-52
2020/12/03 10:19:44;;;;;;;19.67;11.45;;;19.00;45.30;;;;;;5085073;28;20025;-49
2020/12/03 10:22:15;;;;;;;21.15;11.48;;;19.00;45.30;;;;;;5065513;28;20052;-49
2020/12/03 10:24:48;;;;;;;18.10;11.18;;;19.00;45.20;;;;;;5066471;28;20028;-50
2020/12/03 10:27:33;;;;;;;21.77;11.55;;;18.90;45.20;;;;;;5048837;28;20045;-49
2020/12/03 10:30:07;;;;;;;19.63;11.20;;;18.90;45.20;;;;;;5048912;28;20180;-51
2020/12/03 10:32:33;;;;;;;17.77;11.60;;;18.90;45.30;;;;;;5065790;28;20274;-48
2020/12/03 10:34:58;;;;;;;20.08;12.02;;;18.90;45.20;;;;;;5083780;28;20024;-50
2020/12/03 10:37:24;;;;;;;20.88;11.57;;;18.80;45.20;;;;;;5065724;28;20031;-51
2020/12/03 10:39:52;;;;;;;18.92;10.80;;;18.80;45.20;;;;;;5083906;28;20028;-52
2020/12/03 10:42:18;;;;;;;18.77;11.27;;;18.80;45.20;;;;;;5083824;28;20516;-51
2020/12/03 10:44:44;;;;;;;17.63;11.82;;;18.80;45.30;;;;;;5065321;28;20043;-49
2020/12/03 10:47:11;;;;;;;17.58;11.13;;;18.70;45.20;;;;;;5048831;28;20123;-49
2020/12/03 10:49:37;;;;;;;18.10;10.68;;;18.70;45.20;;;;;;5049315;28;20546;-51
2020/12/03 10:52:03;;;;;;;17.77;11.15;;;18.70;45.40;;;;;;5083426;28;20024;-50
2020/12/03 10:54:31;;;;;;;15.18;10.38;;;18.70;45.30;;;;;;5032055;28;20035;-49
2020/12/03 10:56:56;;;;;;;16.95;10.02;;;18.70;45.40;;;;;;5065973;28;20030;-49
2020/12/03 10:59:41;;;;;;;13.98;10.13;;;18.70;45.60;;;;;;5048156;28;20024;-50
2020/12/03 11:02:11;;;;;;;14.63;10.15;;;18.70;45.60;;;;;;5082779;28;20477;-49
2020/12/03 11:04:38;;;;;;;16.45;10.13;;;18.70;45.60;;;;;;5048873;28;20024;-49
2020/12/03 11:07:12;;;;;;;14.70;9.18;;;18.70;45.50;;;;;;5048742;28;20075;-49
2020/12/03 11:09:38;;;;;;;15.90;9.32;;;18.70;45.50;;;;;;5083354;28;20048;-50
2020/12/03 11:12:07;;;;;;;17.75;10.02;;;18.70;45.60;;;;;;5048402;28;20039;-49
2020/12/03 11:14:34;;;;;;;13.13;8.18;;;18.70;45.60;;;;;;5065097;28;20727;-49
2020/12/03 11:17:07;;;;;;;14.45;9.18;;;18.70;45.70;;;;;;5048481;28;20501;-52
2020/12/03 11:19:33;;;;;;;11.65;8.20;;;18.80;45.70;;;;;;5065761;28;20089;-49
2020/12/03 11:22:19;;;;;;;15.68;9.23;;;18.80;45.80;;;;;;5065037;28;20020;-49
2020/12/03 11:24:59;;;;;;;15.10;8.52;;;18.80;45.70;;;;;;5083168;28;20052;-51
2020/12/03 11:27:24;;;;;;;12.35;8.05;;;18.80;45.70;;;;;;5049327;28;20244;-49
2020/12/03 11:29:50;;;;;;;11.45;8.45;;;18.80;45.70;;;;;;5083029;28;20039;-49
2020/12/03 11:32:22;;;;;;;13.02;8.48;;;18.90;45.70;;;;;;5082426;28;20020;-50
2020/12/03 11:34:48;;;;;;;12.95;8.60;;;18.90;45.80;;;;;;5065049;28;20024;-49
2020/12/03 11:37:14;;;;;;;12.38;7.35;;;18.90;45.70;;;;;;5083101;28;20323;-53
2020/12/03 11:39:39;;;;;;;12.68;8.45;;;18.90;45.60;;;;;;5065175;28;20303;-49
2020/12/03 11:45:30;;;;;;;11.45;8.23;;;18.90;45.60;;;;;;5068282;28;20035;-49
2020/12/03 11:50:19;;;;;;;12.00;8.02;;;19.00;45.70;;;;;;5082587;28;20039;-49
2020/12/03 11:52:45;;;;;;;9.40;7.43;;;19.00;46.40;;;;;;5085199;28;20052;-49
2020/12/03 11:55:18;;;;;;;10.82;7.10;;;19.00;45.70;;;;;;5087265;28;20464;-51
2020/12/03 11:57:43;;;;;;;10.07;7.63;;;19.00;45.70;;;;;;5087306;28;20052;-49
2020/12/03 12:00:21;;;;;;;12.20;8.15;;;19.10;45.70;;;;;;5086783;28;20051;-52
2020/12/03 12:02:50;;;;;;;9.70;7.13;;;19.10;45.70;;;;;;5069043;28;20158;-52
2020/12/03 12:10:38;;;;;;;10.70;7.05;;;19.10;45.80;;;;;;5048493;28;20037;-50
2020/12/03 12:13:04;;;;;;;10.68;7.22;;;19.10;45.70;;;;;;5066525;28;20107;-49
2020/12/03 12:15:29;;;;;;;9.93;6.80;;;19.10;45.70;;;;;;5065797;28;20573;-51
2020/12/03 12:17:55;;;;;;;9.80;7.00;;;19.10;45.70;;;;;;5066349;28;20461;-50
2020/12/03 12:20:21;;;;;;;9.05;6.97;;;19.00;45.70;;;;;;5066258;28;20123;-53
2020/12/03 12:22:47;;;;;;;9.93;7.28;;;19.00;45.60;;;;;;5076070;28;20042;-49
2020/12/03 12:25:13;;;;;;;9.02;6.68;;;19.00;45.60;;;;;;5085862;28;20458;-49
2020/12/03 12:27:38;;;;;;;8.10;6.28;;;19.00;45.50;;;;;;5085985;28;20089;-51
2020/12/03 12:30:04;;;;;;;8.23;6.68;;;19.00;45.60;;;;;;5086065;28;20456;-53
2020/12/03 12:32:29;;;;;;;8.63;6.18;;;19.00;45.70;;;;;;5084302;28;20395;-49
2020/12/03 12:34:55;;;;;;;9.65;6.70;;;19.00;45.70;;;;;;5093774;22;20053;-57
2020/12/03 12:37:20;;;;;;;8.43;6.43;;;19.00;45.70;;;;;;5035498;28;20037;-56
2020/12/03 12:39:46;;;;;;;10.90;7.10;;;19.00;45.70;;;;;;5045266;28;20027;-55
2020/12/03 12:42:11;;;;;;;9.13;6.80;;;18.90;45.60;;;;;;5046915;28;20439;-56
2020/12/03 12:44:37;;;;;;;7.93;6.25;;;18.90;45.70;;;;;;5047721;28;20119;-58
2020/12/03 12:47:03;;;;;;;9.13;6.68;;;18.90;45.60;;;;;;5065967;28;20360;-58
2020/12/03 12:49:29;;;;;;;8.48;6.47;;;18.90;45.60;;;;;;5048713;28;20086;-59
2020/12/03 12:51:54;;;;;;;9.38;6.45;;;18.90;45.60;;;;;;5066880;28;20024;-61
2020/12/03 12:54:22;;;;;;;8.07;5.95;;;18.90;45.60;;;;;;5065772;28;20032;-57
2020/12/03 12:56:48;;;;;;;7.80;5.80;;;18.90;45.60;;;;;;5065641;28;20016;-56
2020/12/03 12:59:14;;;;;;;8.38;5.93;;;18.90;45.60;;;;;;5065931;28;20055;-57